Es ist keine erhöhte Aufmerksamkeit aufgrund des Wetters notwendig.   -   Es gibt keine Warnungen.

Nearby METAR Reports

 

LEZL - Sevilla, Spain
Distance from station: ONO 8km
aktuell: 21/10/2017 08:00
teilweise bewölkt
teilweise bewölkt
 Wind von ONO
Wind: ONO 6 km/h
Temperatur: 19°C
Taupunkt: 18°C
Luftfeuchte: 94%
Luftdruck: 1023 hPa
Clouds: teilweise bewölkt
Visibility: 7 km
2017/10/21 06:00 LEZL 210600Z 06003KT 020V090 7000 NSC 19/18 Q1023 NOSIG
LEMO - Morón, Spain
Distance from station: SO 43km
aktuell: 21/10/2017 08:21
Mist, geschlossene Wolkendecke
Mist, geschlossene Wolkendecke
 Wind von N
Wind: N 6 km/h
Temperatur: 17°C
Taupunkt: 16°C
Luftfeuchte: 94%
Luftdruck: 1023 hPa
Zusammenfassung: Mist
Clouds: geschlossene Wolkendecke
Visibility: 4 km
Cloud details: Few Clouds 914 m
geschlossene Wolkendecke 1524 m
2017/10/21 06:21 LEMO 210621Z 01003KT 4000 BR FEW030 OVC050 17/16 Q1023 NOSIG
LEJR - Jeréz, Spain
Distance from station: S 71km
aktuell: 21/10/2017 08:30
Fog, geschlossene Wolkendecke
Fog, geschlossene Wolkendecke
 Wind von N
Wind: N 6 km/h
Temperatur: 18°C
Taupunkt: 18°C
Luftfeuchte: 100%
Luftdruck: 1023 hPa
Zusammenfassung: Fog
Clouds: geschlossene Wolkendecke
Visibility: 0 km
Cloud details: geschlossene Wolkendecke 30 m
2017/10/21 06:30 LEJR 210630Z 01003KT 340V040 0200 R20/0650D FG VV001 18/18 Q1023
 
LERT - Rota, Spain
Distance from station: SSW 89km
aktuell: 21/10/2017 08:00
Fog, geschlossene Wolkendecke
Fog, geschlossene Wolkendecke
 Wind von N
Wind: N 11 km/h
Temperatur: 18°C
Taupunkt: 17°C
Luftfeuchte: 94%
Luftdruck: 1022 hPa
Zusammenfassung: Fog
Clouds: geschlossene Wolkendecke
Visibility: 1 km
Cloud details: geschlossene Wolkendecke 30 m
2017/10/21 06:00 LERT 210600Z 01006KT 340V040 0900 R10/P2000 FG VV001 18/17 Q1022 NOSIG
LEMG - Málaga, Spain
Distance from station: OSO 157km
aktuell: 21/10/2017 08:00
klar
klar
 Wind von NW
Wind: NW 11 km/h
Temperatur: 16°C
Taupunkt: 14°C
Luftfeuchte: 88%
Luftdruck: 1022 hPa
Zusammenfassung: klar
Visibility: greater than 10 km
2017/10/21 06:00 LEMG 210600Z 32006KT CAVOK 16/14 Q1022 NOSIG
LEBA - Córdoba, Spain
Distance from station: ONO 115km
aktuell: 21/10/2017 08:00
stark bewölkt
stark bewölkt
 Wind von calm
Wind: Windstill
Temperatur: 17°C
Taupunkt: 15°C
Luftfeuchte: 88%
Luftdruck: 1024 hPa
Clouds: stark bewölkt
Visibility: 10 km
Cloud details: stark bewölkt 975 m
2017/10/21 06:00 LEBA 210600Z 00000KT 9999 BKN032 17/15 Q1024
 
LEGR - Granada, Spain
Distance from station: O 198km
aktuell: 21/10/2017 08:00
klar
klar
 Wind von calm
Wind: Windstill
Temperatur: 9°C
Taupunkt: 9°C
Luftfeuchte: 100%
Luftdruck: 1025 hPa
Zusammenfassung: klar
Visibility: greater than 10 km
2017/10/21 06:00 LEGR 210600Z 00000KT CAVOK 09/09 Q1025
LEAM - Almería, Spain
Distance from station: O 326km
aktuell: 21/10/2017 08:00
klar
klar
 Wind von N
Wind: N 4 km/h
Temperatur: 16°C
Taupunkt: 12°C
Luftfeuchte: 77%
Luftdruck: 1021 hPa
Zusammenfassung: klar
Visibility: greater than 10 km
2017/10/21 06:00 LEAM 210600Z 35002KT CAVOK 16/12 Q1021
LEMD - Madrid/Barajas, Spain
Distance from station: NNO 402km
aktuell: 21/10/2017 08:00
Mist, stark bewölkt
Mist, stark bewölkt
 Wind von varies
Wind: varies 2 km/h
Temperatur: 14°C
Taupunkt: 14°C
Luftfeuchte: 100%
Luftdruck: 1023 hPa
Zusammenfassung: Mist
Clouds: stark bewölkt
Visibility: 3 km
Cloud details: teilweise bewölkt 61 m
stark bewölkt 244 m
2017/10/21 06:00 LEMD 210600Z VRB01KT 3000 BR SCT002 BKN008 14/14 Q1023 TEMPO 2500 BR BKN004
 
LEVD - Valladolid, Spain
Distance from station: N 492km
aktuell: 21/10/2017 08:00
stark bewölkt
stark bewölkt
 Wind von WSW
Wind: WSW 17 km/h
Temperatur: 13°C
Taupunkt: 12°C
Luftfeuchte: 94%
Luftdruck: 1023 hPa
Clouds: stark bewölkt
Visibility: 8 km
Cloud details: teilweise bewölkt 244 m
stark bewölkt 305 m
2017/10/21 06:00 LEVD 210600Z 25009KT 8000 SCT008 BKN010 13/12 Q1023
LEBL - Barcelona, Spain
Distance from station: NO 816km
aktuell: 21/10/2017 08:00
klar
klar
 Wind von NW
Wind: NW 9 km/h
Temperatur: 15°C
Taupunkt: 13°C
Luftfeuchte: 88%
Luftdruck: 1019 hPa
Zusammenfassung: klar
Visibility: greater than 10 km
2017/10/21 06:00 LEBL 210600Z 31005KT 270V340 CAVOK 15/13 Q1019 NOSIG
LEVC - Valencia, Spain
Distance from station: ONO 535km
aktuell: 21/10/2017 08:00
klar
klar
 Wind von WNW
Wind: WNW 6 km/h
Temperatur: 13°C
Taupunkt: 12°C
Luftfeuchte: 94%
Luftdruck: 1021 hPa
Zusammenfassung: klar
Visibility: greater than 10 km
2017/10/21 06:00 LEVC 210600Z 29003KT 250V320 CAVOK 13/12 Q1021 NOSIG